Time;durP1;ratioP1;P1;durP2;ratioP2;P2;SDS_P1;SDS_P2;PMS_P1;PMS_P2;Temp;Humidity;BMP_temperature;BMP_pressure;BME280_temperature;BME280_humidity;BME280_pressure;Samples;Min_cycle;Max_cycle;Signal;HPM_P1;HPM_P2
2024/04/11 00:00:47;;;;;;;17.58;4.30;;;14.00;62.90;;;;;;5381861;26;20034;-73
2024/04/11 00:03:14;;;;;;;17.70;4.50;;;14.00;63.20;;;;;;5381479;26;20003;-72
2024/04/11 00:05:40;;;;;;;19.50;4.47;;;13.90;63.00;;;;;;5381688;26;20004;-72
2024/04/11 00:08:06;;;;;;;13.93;4.63;;;13.90;63.10;;;;;;5381830;26;20011;-73
2024/04/11 00:10:32;;;;;;;12.30;3.58;;;13.90;63.30;;;;;;5381711;26;20388;-72
2024/04/11 00:12:58;;;;;;;14.73;4.22;;;13.90;63.50;;;;;;5381926;26;20007;-72
2024/04/11 00:15:23;;;;;;;15.25;4.07;;;13.80;63.70;;;;;;5384395;26;20000;-73
2024/04/11 00:17:49;;;;;;;16.33;4.35;;;13.80;63.70;;;;;;5394137;26;20028;-72
2024/04/11 00:20:15;;;;;;;14.35;3.90;;;13.80;63.80;;;;;;5381506;26;19993;-72
2024/04/11 00:22:40;;;;;;;18.50;3.40;;;13.80;64.20;;;;;;5381408;26;20436;-73
2024/04/11 00:25:06;;;;;;;13.88;3.53;;;13.80;64.20;;;;;;5380996;26;21841;-73
2024/04/11 00:27:33;;;;;;;14.65;3.03;;;13.70;64.60;;;;;;5381528;26;20069;-73
2024/04/11 00:29:59;;;;;;;14.05;3.83;;;13.70;64.50;;;;;;5381283;26;20015;-73
2024/04/11 00:32:25;;;;;;;11.27;3.45;;;13.70;64.70;;;;;;5381356;26;20003;-73
2024/04/11 00:34:50;;;;;;;18.05;4.50;;;13.70;64.60;;;;;;5381473;26;20007;-72
2024/04/11 00:37:16;;;;;;;14.85;3.97;;;13.70;64.80;;;;;;5380931;26;20416;-72
2024/04/11 00:39:42;;;;;;;12.10;3.20;;;13.70;64.90;;;;;;5381369;26;20012;-73
2024/04/11 00:42:08;;;;;;;13.65;3.50;;;13.60;65.20;;;;;;5381589;26;20004;-73
2024/04/11 00:44:36;;;;;;;12.07;3.45;;;13.60;65.00;;;;;;5381031;26;20011;-73
2024/04/11 00:47:09;;;;;;;11.15;3.10;;;13.50;65.10;;;;;;5380753;26;19996;-73
2024/04/11 00:49:39;;;;;;;12.60;3.30;;;13.50;65.50;;;;;;5381203;26;20451;-74
2024/04/11 00:52:08;;;;;;;11.90;3.25;;;13.50;65.40;;;;;;5381072;26;20402;-73
2024/04/11 00:54:35;;;;;;;14.55;4.32;;;13.50;65.70;;;;;;5381274;26;20001;-71
2024/04/11 00:57:05;;;;;;;14.73;3.17;;;13.50;65.50;;;;;;5381445;26;19996;-73
2024/04/11 00:59:33;;;;;;;13.77;3.58;;;13.50;65.60;;;;;;5380729;26;20078;-73
2024/04/11 01:01:58;;;;;;;15.98;3.38;;;13.40;65.70;;;;;;5381011;26;19996;-73
2024/04/11 01:04:25;;;;;;;11.40;2.90;;;13.40;65.80;;;;;;5379328;26;20071;-73
2024/04/11 01:07:06;;;;;;;16.15;3.83;;;13.40;65.90;;;;;;5382372;26;20001;-72
2024/04/11 01:09:43;;;;;;;13.75;3.75;;;13.40;66.20;;;;;;5382216;26;19996;-73
2024/04/11 01:12:12;;;;;;;12.32;3.35;;;13.30;66.30;;;;;;5384890;26;20043;-74
2024/04/11 01:14:41;;;;;;;12.38;3.17;;;13.30;66.20;;;;;;5380823;26;20024;-73
2024/04/11 01:17:07;;;;;;;14.43;3.83;;;13.30;66.10;;;;;;5380540;26;19997;-73
2024/04/11 01:19:33;;;;;;;14.05;3.35;;;13.30;66.60;;;;;;5380979;26;20329;-72
2024/04/11 01:22:00;;;;;;;15.25;3.40;;;13.30;66.60;;;;;;5380861;26;20000;-72
2024/04/11 01:24:26;;;;;;;14.82;3.75;;;13.30;66.60;;;;;;5379722;26;20370;-73
2024/04/11 01:26:52;;;;;;;14.80;3.90;;;13.20;66.70;;;;;;5381115;26;19997;-73
2024/04/11 01:29:18;;;;;;;12.98;3.75;;;13.20;66.90;;;;;;5383685;26;19996;-74
2024/04/11 01:31:44;;;;;;;12.05;3.83;;;13.10;67.00;;;;;;5383741;26;20337;-72
2024/04/11 01:34:10;;;;;;;17.10;4.40;;;13.20;67.40;;;;;;5383507;26;20004;-71
2024/04/11 01:36:36;;;;;;;18.25;4.40;;;13.10;67.30;;;;;;5383845;26;20012;-72
2024/04/11 01:39:09;;;;;;;14.88;3.58;;;13.10;67.90;;;;;;5383993;26;20000;-74
2024/04/11 01:41:37;;;;;;;12.65;2.90;;;13.10;67.60;;;;;;5383511;26;20308;-74
2024/04/11 01:44:05;;;;;;;11.80;3.38;;;13.00;67.50;;;;;;5383760;26;20007;-74
2024/04/11 01:46:30;;;;;;;15.13;3.70;;;13.00;68.00;;;;;;5383836;26;20011;-73
2024/04/11 01:48:56;;;;;;;18.17;4.05;;;12.90;68.00;;;;;;5383882;26;20401;-73
2024/04/11 01:51:23;;;;;;;13.23;3.75;;;12.90;67.90;;;;;;5383371;26;20474;-72
2024/04/11 01:53:49;;;;;;;12.10;3.80;;;12.90;68.00;;;;;;5383570;26;20463;-72
2024/04/11 01:56:14;;;;;;;11.95;3.33;;;12.90;68.20;;;;;;5383608;26;20004;-74
2024/04/11 01:58:41;;;;;;;12.05;3.72;;;12.90;68.30;;;;;;5383458;26;20073;-73
2024/04/11 02:01:12;;;;;;;12.75;3.67;;;12.90;68.30;;;;;;5383595;26;20000;-73
2024/04/11 02:03:43;;;;;;;15.98;3.47;;;12.90;68.30;;;;;;5381369;26;20000;-73
2024/04/11 02:06:11;;;;;;;17.30;4.10;;;12.90;68.40;;;;;;5381492;26;20011;-74
2024/04/11 02:08:37;;;;;;;16.35;4.07;;;12.90;68.40;;;;;;5383285;26;20011;-73
2024/04/11 02:11:04;;;;;;;12.73;3.55;;;12.90;68.60;;;;;;5383124;26;20036;-72
2024/04/11 02:13:30;;;;;;;13.80;3.75;;;12.80;68.90;;;;;;5383290;26;20304;-73
2024/04/11 02:15:56;;;;;;;16.50;4.15;;;12.80;69.00;;;;;;5383230;26;20000;-73
2024/04/11 02:18:21;;;;;;;10.80;3.30;;;12.90;69.00;;;;;;5383238;26;20473;-72
2024/04/11 02:20:47;;;;;;;14.32;3.83;;;12.90;69.00;;;;;;5383211;26;20366;-73
2024/04/11 02:23:14;;;;;;;11.18;3.17;;;12.90;69.20;;;;;;5382858;26;20000;-73
2024/04/11 02:25:40;;;;;;;12.05;3.58;;;12.90;69.10;;;;;;5383028;26;20451;-72
2024/04/11 02:28:06;;;;;;;15.95;3.97;;;12.90;69.30;;;;;;5382841;26;19997;-73
2024/04/11 02:30:32;;;;;;;9.40;3.20;;;12.80;69.20;;;;;;5381073;26;20486;-72
2024/04/11 02:32:58;;;;;;;14.35;3.85;;;12.80;69.50;;;;;;5383080;26;19996;-73
2024/04/11 02:35:24;;;;;;;12.52;3.10;;;12.80;69.40;;;;;;5382770;26;20340;-72
2024/04/11 02:37:54;;;;;;;11.52;3.17;;;12.80;69.20;;;;;;5381872;26;20007;-72
2024/04/11 02:40:20;;;;;;;13.40;3.40;;;12.70;69.30;;;;;;5382478;26;20135;-71
2024/04/11 02:42:47;;;;;;;14.38;3.50;;;12.60;69.60;;;;;;5382510;26;20386;-72
2024/04/11 02:45:14;;;;;;;12.73;3.47;;;12.50;69.80;;;;;;5382209;26;20454;-72
2024/04/11 02:47:41;;;;;;;12.18;3.45;;;12.50;69.80;;;;;;5382574;26;19996;-73
2024/04/11 02:50:09;;;;;;;9.13;3.20;;;12.40;69.80;;;;;;5382673;26;20341;-72
2024/04/11 02:52:40;;;;;;;11.65;3.42;;;12.40;70.20;;;;;;5382610;26;20025;-73
2024/04/11 02:55:07;;;;;;;13.52;3.45;;;12.40;70.20;;;;;;5382498;26;19996;-72
2024/04/11 02:57:34;;;;;;;14.23;4.00;;;12.30;70.10;;;;;;5382762;26;20024;-73
2024/04/11 02:59:59;;;;;;;22.23;3.83;;;12.30;70.30;;;;;;5383046;26;20042;-73
2024/04/11 03:02:28;;;;;;;13.85;3.90;;;12.30;70.20;;;;;;5382120;26;19996;-74
2024/04/11 03:04:58;;;;;;;12.43;3.08;;;12.30;70.40;;;;;;5382012;26;20011;-73
2024/04/11 03:07:24;;;;;;;17.35;4.03;;;12.30;70.40;;;;;;5382215;26;20367;-73
2024/04/11 03:09:53;;;;;;;12.80;3.22;;;12.30;70.30;;;;;;5381206;26;19996;-71
2024/04/11 03:12:19;;;;;;;15.48;3.85;;;12.30;70.40;;;;;;5381937;26;20004;-73
2024/04/11 03:14:49;;;;;;;10.43;3.30;;;12.30;70.40;;;;;;5381985;26;20028;-72
2024/04/11 03:17:14;;;;;;;13.00;3.75;;;12.30;70.50;;;;;;5381868;26;20008;-73
2024/04/11 03:19:41;;;;;;;15.38;4.35;;;12.40;70.50;;;;;;5381934;26;20074;-72
2024/04/11 03:22:06;;;;;;;18.00;4.18;;;12.40;70.20;;;;;;5379978;26;19996;-73
2024/04/11 03:24:33;;;;;;;17.25;4.28;;;12.40;70.20;;;;;;5379906;26;20007;-72
2024/04/11 03:27:00;;;;;;;13.25;3.70;;;12.40;70.40;;;;;;5382536;26;20456;-72
2024/04/11 03:29:27;;;;;;;14.02;3.95;;;12.40;70.40;;;;;;5381354;26;20003;-72
2024/04/11 03:31:54;;;;;;;9.38;3.35;;;12.40;70.40;;;;;;5381874;26;20000;-72
2024/04/11 03:34:23;;;;;;;16.35;3.40;;;12.40;70.50;;;;;;5381593;26;20012;-72
2024/04/11 03:36:49;;;;;;;13.80;4.30;;;12.40;70.70;;;;;;5381884;26;20000;-73
2024/04/11 03:39:20;;;;;;;15.85;3.70;;;12.30;70.30;;;;;;5381422;26;20011;-73
2024/04/11 03:41:48;;;;;;;11.27;3.67;;;12.30;70.40;;;;;;5379902;26;19992;-74
2024/04/11 03:44:15;;;;;;;13.32;3.17;;;12.20;70.50;;;;;;5381661;26;20550;-73
2024/04/11 03:46:41;;;;;;;11.18;3.28;;;12.20;70.60;;;;;;5381316;26;20014;-72
2024/04/11 03:49:07;;;;;;;17.10;3.75;;;12.20;70.50;;;;;;5381307;26;20432;-73
2024/04/11 03:51:34;;;;;;;13.18;3.63;;;12.10;70.50;;;;;;5381153;26;20007;-73
2024/04/11 03:54:03;;;;;;;12.45;3.65;;;12.10;70.50;;;;;;5381421;26;20073;-72
2024/04/11 03:56:29;;;;;;;15.68;3.17;;;12.10;70.90;;;;;;5381649;26;20069;-72
2024/04/11 03:58:58;;;;;;;14.90;3.85;;;12.10;70.60;;;;;;5381598;26;20008;-72
2024/04/11 04:01:26;;;;;;;14.57;3.03;;;12.00;70.60;;;;;;5381896;26;20008;-73
2024/04/11 04:03:56;;;;;;;12.23;3.30;;;11.90;70.60;;;;;;5383068;26;20012;-73
2024/04/11 04:06:21;;;;;;;14.18;3.72;;;11.90;70.90;;;;;;5385443;26;20012;-73
2024/04/11 04:08:48;;;;;;;13.98;3.42;;;11.80;70.80;;;;;;5387400;26;20000;-73
2024/04/11 04:11:15;;;;;;;16.70;3.83;;;11.80;70.90;;;;;;5382929;26;20010;-73
2024/04/11 04:13:42;;;;;;;17.58;3.75;;;11.80;70.90;;;;;;5381659;26;20011;-73
2024/04/11 04:16:12;;;;;;;15.43;4.53;;;11.90;70.90;;;;;;5381200;26;20000;-69
2024/04/11 04:18:39;;;;;;;12.38;3.40;;;11.90;71.00;;;;;;5379657;26;19996;-73
2024/04/11 04:21:04;;;;;;;19.85;4.32;;;11.90;70.90;;;;;;5381457;26;20385;-73
2024/04/11 04:23:30;;;;;;;13.93;3.50;;;11.80;71.10;;;;;;5381324;26;19996;-74
2024/04/11 04:26:05;;;;;;;15.43;4.28;;;11.80;71.10;;;;;;5381524;26;20313;-73
2024/04/11 04:28:32;;;;;;;17.55;3.55;;;11.90;71.20;;;;;;5381527;26;20007;-73
2024/04/11 04:31:21;;;;;;;13.00;3.47;;;11.90;71.30;;;;;;5381294;26;20003;-73
2024/04/11 04:33:52;;;;;;;12.43;3.75;;;11.90;71.40;;;;;;5381302;26;19996;-72
2024/04/11 04:36:25;;;;;;;12.10;3.65;;;11.90;71.30;;;;;;5381026;26;20007;-72
2024/04/11 04:38:52;;;;;;;12.82;3.92;;;11.90;71.40;;;;;;5379388;26;20082;-73
2024/04/11 04:41:20;;;;;;;11.45;3.58;;;11.80;71.50;;;;;;5380853;26;20529;-72
2024/04/11 04:43:54;;;;;;;13.43;3.50;;;11.80;71.60;;;;;;5380655;26;19997;-72
2024/04/11 04:46:25;;;;;;;15.27;3.72;;;11.80;71.90;;;;;;5380767;26;20339;-72
2024/04/11 04:48:53;;;;;;;14.52;3.72;;;11.80;72.00;;;;;;5380846;26;20421;-73
2024/04/11 04:51:20;;;;;;;14.60;3.50;;;11.80;72.10;;;;;;5381372;26;20401;-73
2024/04/11 04:53:46;;;;;;;12.25;3.22;;;11.80;72.10;;;;;;5380851;26;19996;-73
2024/04/11 04:56:13;;;;;;;13.32;4.47;;;11.80;72.30;;;;;;5380703;26;20007;-73
2024/04/11 04:58:42;;;;;;;16.02;3.90;;;11.80;72.10;;;;;;5380709;26;20489;-73
2024/04/11 05:01:08;;;;;;;14.02;4.22;;;11.90;72.20;;;;;;5380246;26;20007;-73
2024/04/11 05:03:40;;;;;;;13.82;4.15;;;12.00;72.00;;;;;;5380944;26;20000;-74
2024/04/11 05:06:09;;;;;;;16.42;4.35;;;12.10;72.00;;;;;;5378901;26;20297;-73
2024/04/11 05:08:35;;;;;;;15.27;3.92;;;12.10;71.90;;;;;;5378762;26;19996;-73
2024/04/11 05:11:10;;;;;;;19.50;4.03;;;12.10;71.70;;;;;;5378792;26;19992;-72
2024/04/11 05:13:40;;;;;;;13.00;3.70;;;12.10;71.70;;;;;;5381266;26;20038;-74
2024/04/11 05:16:07;;;;;;;12.68;3.53;;;12.20;71.80;;;;;;5380683;26;19996;-73
2024/04/11 05:18:37;;;;;;;17.95;3.92;;;12.20;71.90;;;;;;5380347;26;19996;-73
2024/04/11 05:21:07;;;;;;;13.38;3.60;;;12.10;71.60;;;;;;5380103;26;20007;-73
2024/04/11 05:23:34;;;;;;;17.15;3.72;;;12.20;71.70;;;;;;5381083;26;20040;-74
2024/04/11 05:26:07;;;;;;;14.82;3.22;;;12.20;71.60;;;;;;5380012;26;20477;-73
2024/04/11 05:28:36;;;;;;;26.13;12.50;;;12.20;71.70;;;;;;5380537;26;20001;-72
2024/04/11 05:31:05;;;;;;;17.45;4.47;;;12.30;71.50;;;;;;5380038;26;20361;-72
2024/04/11 05:33:32;;;;;;;11.05;3.38;;;12.30;71.50;;;;;;5379936;26;20340;-72
2024/04/11 05:35:59;;;;;;;10.23;3.05;;;12.40;71.40;;;;;;5380971;26;20415;-71
2024/04/11 05:38:26;;;;;;;17.05;3.92;;;12.40;71.00;;;;;;5380383;26;20008;-72
2024/04/11 05:40:52;;;;;;;17.45;4.25;;;12.50;71.20;;;;;;5380113;26;19996;-72
2024/04/11 05:43:20;;;;;;;15.27;4.03;;;12.50;71.00;;;;;;5379809;26;20000;-71
2024/04/11 05:45:47;;;;;;;19.17;4.90;;;12.60;70.90;;;;;;5377964;26;20064;-73
2024/04/11 05:48:13;;;;;;;16.95;4.45;;;13.10;70.80;;;;;;5379967;26;20001;-71
2024/04/11 05:50:39;;;;;;;15.57;6.22;;;13.80;69.50;;;;;;5379681;26;20007;-72
2024/04/11 05:53:08;;;;;;;18.35;4.68;;;14.40;67.30;;;;;;5379846;26;20000;-72
2024/04/11 05:55:34;;;;;;;14.15;5.03;;;15.00;66.50;;;;;;5378526;26;20008;-72
2024/04/11 05:57:59;;;;;;;14.85;4.63;;;15.90;64.70;;;;;;5379776;26;20407;-72
2024/04/11 06:00:29;;;;;;;14.52;4.65;;;16.40;63.30;;;;;;5377957;26;19992;-72
2024/04/11 06:03:08;;;;;;;14.75;4.03;;;16.60;62.50;;;;;;5379982;26;20073;-72
2024/04/11 06:05:38;;;;;;;14.25;3.78;;;16.90;61.70;;;;;;5379719;26;20008;-75
2024/04/11 06:08:08;;;;;;;11.48;3.70;;;17.20;60.70;;;;;;5379753;26;20032;-71
2024/04/11 06:10:34;;;;;;;20.08;5.63;;;17.70;60.20;;;;;;5379490;26;20004;-71
2024/04/11 06:13:01;;;;;;;15.65;4.43;;;18.00;59.70;;;;;;5380284;26;20008;-71
2024/04/11 06:15:28;;;;;;;12.98;3.88;;;18.50;59.10;;;;;;5383525;26;20000;-74
2024/04/11 06:17:53;;;;;;;15.38;4.43;;;18.80;58.50;;;;;;5383730;26;19996;-71
2024/04/11 06:20:24;;;;;;;16.45;4.55;;;18.90;57.80;;;;;;5383087;26;20007;-71
2024/04/11 06:22:55;;;;;;;21.52;4.95;;;19.30;57.40;;;;;;5382932;26;20411;-69
2024/04/11 06:25:21;;;;;;;15.68;4.13;;;19.50;56.60;;;;;;5381082;26;19996;-73
2024/04/11 06:27:48;;;;;;;16.98;3.80;;;19.70;55.50;;;;;;5382958;26;20000;-73
2024/04/11 06:30:14;;;;;;;17.13;4.40;;;20.10;54.60;;;;;;5383221;26;20012;-72
2024/04/11 06:32:43;;;;;;;17.17;3.92;;;20.50;53.90;;;;;;5382676;26;20000;-76
2024/04/11 06:35:09;;;;;;;21.27;5.15;;;20.30;53.30;;;;;;5383127;26;19996;-74
2024/04/11 06:37:35;;;;;;;20.70;4.35;;;20.40;53.40;;;;;;5381195;26;20023;-74
2024/04/11 06:40:12;;;;;;;15.48;4.13;;;20.50;53.20;;;;;;5382911;26;20093;-73
2024/04/11 06:42:46;;;;;;;14.80;5.88;;;20.70;53.20;;;;;;5383019;26;20387;-73
2024/04/11 06:45:23;;;;;;;13.82;4.38;;;20.80;52.70;;;;;;5382604;26;19996;-75
2024/04/11 06:47:49;;;;;;;16.40;4.60;;;20.90;52.60;;;;;;5382373;26;20450;-75
2024/04/11 06:50:15;;;;;;;18.98;4.55;;;21.20;52.30;;;;;;5382390;26;20006;-77
2024/04/11 06:52:44;;;;;;;17.80;4.25;;;21.40;52.00;;;;;;5380709;26;19996;-74
2024/04/11 06:55:12;;;;;;;17.30;4.63;;;21.20;52.00;;;;;;5382746;26;20000;-75
2024/04/11 06:57:40;;;;;;;11.50;3.95;;;21.30;51.40;;;;;;5382536;26;20008;-75
2024/04/11 07:00:14;;;;;;;15.18;4.03;;;21.50;50.90;;;;;;5382760;26;20001;-74
2024/04/11 07:02:44;;;;;;;16.45;4.20;;;21.50;50.60;;;;;;5382474;26;20004;-77
2024/04/11 07:05:13;;;;;;;13.57;4.10;;;21.60;50.30;;;;;;5380326;26;20003;-74
2024/04/11 07:07:41;;;;;;;13.25;4.50;;;21.80;50.20;;;;;;5380868;26;20000;-74
2024/04/11 07:10:15;;;;;;;14.18;4.40;;;22.20;49.80;;;;;;5382606;26;20008;-78
2024/04/11 07:12:46;;;;;;;14.43;4.55;;;22.30;49.60;;;;;;5382449;26;20011;-76
2024/04/11 07:15:18;;;;;;;18.08;4.18;;;22.20;49.20;;;;;;5381992;26;20011;-77
2024/04/11 07:17:56;;;;;;;15.38;3.97;;;22.10;49.70;;;;;;5382398;26;19996;-76
2024/04/11 07:20:30;;;;;;;15.02;4.00;;;22.20;49.60;;;;;;5382615;26;20021;-77
2024/04/11 07:23:04;;;;;;;15.13;3.65;;;22.00;49.50;;;;;;5382529;26;20436;-76
2024/04/11 07:25:35;;;;;;;12.50;3.42;;;21.50;49.70;;;;;;5381736;26;19997;-75
2024/04/11 07:28:01;;;;;;;14.65;4.22;;;21.40;49.80;;;;;;5382172;26;20000;-73
2024/04/11 07:30:29;;;;;;;11.40;3.92;;;21.00;50.10;;;;;;5381737;26;20000;-75
2024/04/11 07:32:56;;;;;;;14.57;4.22;;;20.40;50.90;;;;;;5382040;26;19996;-75
2024/04/11 07:35:26;;;;;;;17.23;5.63;;;20.10;51.70;;;;;;5382074;26;19996;-75
2024/04/11 07:37:57;;;;;;;16.20;4.25;;;19.70;52.70;;;;;;5383270;26;20011;-77
2024/04/11 07:40:32;;;;;;;12.85;4.07;;;19.20;52.70;;;;;;5380780;26;20450;-75
2024/04/11 07:43:09;;;;;;;12.75;4.60;;;18.90;53.50;;;;;;5382025;26;20389;-79
2024/04/11 07:45:40;;;;;;;15.52;4.80;;;18.80;53.90;;;;;;5380295;26;20015;-76
2024/04/11 07:48:08;;;;;;;20.70;6.60;;;18.60;54.00;;;;;;5391854;26;19995;-76
2024/04/11 07:50:35;;;;;;;42.88;8.23;;;18.70;54.50;;;;;;5406060;26;20061;-75
2024/04/11 07:53:02;;;;;;;28.45;5.60;;;18.70;54.20;;;;;;5414301;26;19991;-76
2024/04/11 07:55:28;;;;;;;171.23;20.17;;;18.70;54.40;;;;;;5411995;26;20007;-79
2024/04/11 07:57:55;;;;;;;21.35;4.45;;;18.70;54.40;;;;;;5383229;26;20076;-78
2024/04/11 08:00:23;;;;;;;13.60;4.05;;;18.50;54.70;;;;;;5381547;26;20288;-79
2024/04/11 08:02:49;;;;;;;17.85;4.25;;;18.30;55.30;;;;;;5382048;26;19996;-83
2024/04/11 08:05:18;;;;;;;19.23;5.72;;;18.40;55.40;;;;;;5382067;26;20077;-82
2024/04/11 08:07:44;;;;;;;19.08;5.38;;;18.40;55.30;;;;;;5381583;26;19997;-71
2024/04/11 08:10:10;;;;;;;22.05;5.50;;;18.40;55.70;;;;;;5380842;26;20000;-70
2024/04/11 08:12:35;;;;;;;18.35;5.25;;;18.60;56.00;;;;;;5380447;26;19996;-68
2024/04/11 08:15:02;;;;;;;19.73;5.82;;;18.60;55.90;;;;;;5386694;26;20402;-68
2024/04/11 08:17:29;;;;;;;15.15;4.65;;;18.60;55.80;;;;;;5380776;26;20000;-72
2024/04/11 08:19:55;;;;;;;17.00;4.25;;;18.60;56.10;;;;;;5381042;26;19996;-70
2024/04/11 08:22:22;;;;;;;18.02;4.22;;;18.60;56.00;;;;;;5381053;26;19996;-69
2024/04/11 08:24:51;;;;;;;18.58;5.05;;;18.50;56.10;;;;;;5381321;26;20018;-70
2024/04/11 08:27:17;;;;;;;21.83;5.40;;;18.50;55.70;;;;;;5391065;26;20010;-71
2024/04/11 08:29:42;;;;;;;18.02;5.38;;;18.40;56.10;;;;;;5409000;26;20011;-68
2024/04/11 08:32:09;;;;;;;18.17;4.80;;;18.60;56.10;;;;;;5415971;26;19999;-71
2024/04/11 08:34:35;;;;;;;21.02;4.85;;;18.60;55.50;;;;;;5398898;26;20012;-69
2024/04/11 08:37:02;;;;;;;17.80;4.75;;;18.70;55.70;;;;;;5379833;26;20403;-70
2024/04/11 08:39:28;;;;;;;17.92;4.38;;;18.80;55.60;;;;;;5380783;26;20073;-69
2024/04/11 08:41:53;;;;;;;16.20;4.80;;;19.00;55.60;;;;;;5380733;26;20439;-70
2024/04/11 08:44:19;;;;;;;18.23;4.75;;;19.00;55.40;;;;;;5383086;26;20008;-70
2024/04/11 08:46:45;;;;;;;14.23;3.67;;;19.10;55.20;;;;;;5380723;26;20042;-70
2024/04/11 08:49:11;;;;;;;17.27;4.28;;;19.10;54.90;;;;;;5382984;26;19996;-69
2024/04/11 08:51:39;;;;;;;14.23;4.20;;;19.10;55.00;;;;;;5405400;26;20264;-72
2024/04/11 08:54:07;;;;;;;19.25;4.20;;;18.90;55.20;;;;;;5379776;26;20024;-70
2024/04/11 08:56:33;;;;;;;22.40;5.00;;;18.90;55.20;;;;;;5379491;26;20011;-69
2024/04/11 08:58:59;;;;;;;22.77;5.22;;;18.90;55.40;;;;;;5384063;26;20123;-70
2024/04/11 09:01:25;;;;;;;20.58;4.78;;;19.10;55.60;;;;;;5380015;26;20007;-70
2024/04/11 09:03:52;;;;;;;18.08;4.90;;;19.10;55.20;;;;;;5382289;26;20428;-70
2024/04/11 09:06:28;;;;;;;16.98;4.60;;;19.10;55.10;;;;;;5379388;26;19992;-69
2024/04/11 09:08:56;;;;;;;122.85;13.43;;;19.20;55.10;;;;;;5386924;26;20313;-73
2024/04/11 09:11:25;;;;;;;21.45;4.10;;;19.30;56.00;;;;;;5379968;26;20003;-69
2024/04/11 09:13:51;;;;;;;20.77;4.32;;;19.30;55.50;;;;;;5379939;26;20004;-69
2024/04/11 09:16:27;;;;;;;16.08;5.10;;;19.30;55.10;;;;;;5380696;26;19993;-70
2024/04/11 09:19:01;;;;;;;12.77;4.30;;;19.20;54.80;;;;;;5379986;26;20101;-74
2024/04/11 09:21:28;;;;;;;12.68;4.35;;;19.10;54.90;;;;;;5380172;26;20104;-74
2024/04/11 09:23:53;;;;;;;14.15;3.70;;;19.10;55.00;;;;;;5382884;26;20007;-75
2024/04/11 09:26:19;;;;;;;15.38;4.60;;;19.20;54.70;;;;;;5379485;26;19996;-74
2024/04/11 09:28:45;;;;;;;14.05;4.50;;;19.10;54.80;;;;;;5387350;26;20073;-74
2024/04/11 09:31:18;;;;;;;16.30;4.22;;;19.20;54.70;;;;;;5379638;26;19996;-74
2024/04/11 09:33:49;;;;;;;17.00;4.10;;;19.30;54.80;;;;;;5386314;26;20042;-78
2024/04/11 09:36:18;;;;;;;18.27;3.65;;;19.40;53.90;;;;;;5384257;26;20094;-70
2024/04/11 09:38:46;;;;;;;12.73;3.90;;;19.50;53.70;;;;;;5380081;26;20008;-73
2024/04/11 09:41:12;;;;;;;14.98;3.85;;;19.60;53.40;;;;;;5380419;26;19996;-72
2024/04/11 09:43:41;;;;;;;13.98;3.80;;;19.70;53.50;;;;;;5380294;26;20047;-70
2024/04/11 09:46:07;;;;;;;14.20;3.92;;;19.80;53.30;;;;;;5379837;26;20328;-72
2024/04/11 09:48:38;;;;;;;20.60;5.05;;;19.90;53.20;;;;;;5383179;26;20007;-72
2024/04/11 09:51:09;;;;;;;14.63;3.50;;;20.10;53.00;;;;;;5383615;26;20007;-72
2024/04/11 09:53:36;;;;;;;13.88;3.40;;;20.10;52.50;;;;;;5383351;26;20011;-72
2024/04/11 09:56:08;;;;;;;11.05;3.10;;;20.00;52.00;;;;;;5383683;26;19996;-71
2024/04/11 09:58:38;;;;;;;15.27;3.50;;;20.10;52.00;;;;;;5383385;26;20027;-71
2024/04/11 10:01:31;;;;;;;17.23;3.83;;;20.10;51.60;;;;;;5383466;26;20081;-72
2024/04/11 10:04:03;;;;;;;15.70;3.30;;;20.10;51.20;;;;;;5383678;26;20007;-71
2024/04/11 10:06:35;;;;;;;11.98;3.50;;;20.30;51.30;;;;;;5381851;26;19992;-72
2024/04/11 10:09:18;;;;;;;11.75;3.72;;;20.40;51.30;;;;;;5383394;26;20008;-72
2024/04/11 10:11:46;;;;;;;14.65;3.50;;;20.50;50.90;;;;;;5383340;26;20463;-71
2024/04/11 10:14:28;;;;;;;16.38;3.30;;;20.60;50.80;;;;;;5383147;26;20007;-71
2024/04/11 10:17:01;;;;;;;9.45;3.33;;;20.60;50.70;;;;;;5383217;26;20448;-72
2024/04/11 10:19:31;;;;;;;12.13;3.85;;;20.80;50.70;;;;;;5382600;26;19996;-72
2024/04/11 10:22:08;;;;;;;12.93;3.40;;;21.00;50.40;;;;;;5382907;26;20000;-73
2024/04/11 10:24:37;;;;;;;12.25;3.50;;;21.20;49.90;;;;;;5383208;26;20045;-72
2024/04/11 10:27:19;;;;;;;11.07;3.65;;;21.30;49.90;;;;;;5383635;26;20373;-72
2024/04/11 10:29:47;;;;;;;13.85;2.85;;;21.40;49.20;;;;;;5383140;26;20015;-70
2024/04/11 10:32:26;;;;;;;12.77;3.85;;;21.40;49.80;;;;;;5382989;26;20008;-72
2024/04/11 10:34:56;;;;;;;17.52;3.80;;;21.40;49.80;;;;;;5382901;26;19996;-71
2024/04/11 10:37:23;;;;;;;14.32;4.03;;;21.50;49.90;;;;;;5382872;26;20011;-72
2024/04/11 10:39:58;;;;;;;15.10;4.00;;;21.70;49.70;;;;;;5383149;26;20034;-71
2024/04/11 10:42:31;;;;;;;15.23;3.28;;;21.80;49.60;;;;;;5383441;26;20004;-71
2024/04/11 10:44:59;;;;;;;13.35;2.95;;;21.90;49.50;;;;;;5382951;26;19992;-69
2024/04/11 10:47:26;;;;;;;12.75;3.33;;;21.90;49.10;;;;;;5382425;26;19996;-69
2024/04/11 10:49:55;;;;;;;13.25;4.20;;;21.90;49.20;;;;;;5383150;26;19996;-74
2024/04/11 10:52:21;;;;;;;18.83;3.72;;;22.00;49.00;;;;;;5382749;26;20024;-72
2024/04/11 10:54:50;;;;;;;11.73;3.25;;;22.00;49.10;;;;;;5382928;26;20007;-72
2024/04/11 10:57:16;;;;;;;16.45;3.78;;;21.80;48.70;;;;;;5382640;26;20070;-72
2024/04/11 10:59:50;;;;;;;12.07;3.67;;;21.70;48.90;;;;;;5381881;26;20322;-72
2024/04/11 11:02:25;;;;;;;11.13;3.28;;;21.70;49.00;;;;;;5381362;26;19996;-74
2024/04/11 11:04:54;;;;;;;12.20;3.38;;;21.70;48.80;;;;;;5382621;26;20410;-70
2024/04/11 11:07:31;;;;;;;12.65;3.72;;;21.80;49.20;;;;;;5383066;26;20000;-74
2024/04/11 11:09:57;;;;;;;13.45;3.80;;;21.80;49.70;;;;;;5382758;26;20539;-74
2024/04/11 11:12:24;;;;;;;12.77;4.30;;;21.90;49.40;;;;;;5380807;26;20008;-73
2024/04/11 11:14:53;;;;;;;12.10;4.10;;;22.00;50.00;;;;;;5382526;26;20011;-75
2024/04/11 11:17:19;;;;;;;12.35;5.30;;;22.10;49.10;;;;;;5382593;26;20464;-76
2024/04/11 11:19:51;;;;;;;9.25;3.30;;;22.20;49.10;;;;;;5382252;26;19996;-75
2024/04/11 11:22:33;;;;;;;10.73;3.65;;;22.20;48.10;;;;;;5382458;26;20358;-72
2024/04/11 11:25:00;;;;;;;12.25;3.05;;;22.20;47.50;;;;;;5382469;26;19997;-71
2024/04/11 11:27:31;;;;;;;13.07;3.58;;;22.20;48.60;;;;;;5382054;26;20517;-73
2024/04/11 11:29:57;;;;;;;17.63;3.70;;;22.10;48.70;;;;;;5387747;26;20015;-72
2024/04/11 11:32:25;;;;;;;14.07;3.63;;;22.10;48.50;;;;;;5397889;26;20443;-77
2024/04/11 11:34:52;;;;;;;13.70;4.03;;;22.10;48.50;;;;;;5381701;26;20011;-74
2024/04/11 11:37:21;;;;;;;12.07;4.07;;;22.30;48.90;;;;;;5381695;26;20359;-75
2024/04/11 11:39:55;;;;;;;11.98;4.00;;;22.40;48.90;;;;;;5380309;26;19992;-75
2024/04/11 11:42:26;;;;;;;13.15;4.05;;;22.30;49.20;;;;;;5382450;26;20000;-73
2024/04/11 11:47:34;;;;;;;14.10;3.97;;;22.30;50.00;;;;;;5381971;26;20000;-73
2024/04/11 11:50:07;;;;;;;14.52;4.55;;;22.40;49.90;;;;;;5381951;26;20008;-73
2024/04/11 11:52:39;;;;;;;11.43;3.90;;;22.60;48.70;;;;;;5382105;26;20015;-75
2024/04/11 11:55:06;;;;;;;18.15;4.68;;;22.70;48.60;;;;;;5381967;26;19996;-75
2024/04/11 11:57:40;;;;;;;13.55;4.10;;;22.70;49.90;;;;;;5381792;26;20008;-72
2024/04/11 12:00:21;;;;;;;10.60;3.83;;;22.80;48.90;;;;;;5398746;26;20014;-75
2024/04/11 12:02:55;;;;;;;12.05;4.00;;;22.90;49.90;;;;;;5415333;26;20347;-76
2024/04/11 12:05:23;;;;;;;13.82;4.55;;;23.00;50.10;;;;;;5416911;26;20031;-77
2024/04/11 12:07:59;;;;;;;17.77;7.38;;;22.90;50.10;;;;;;5417543;26;19996;-75
2024/04/11 12:15:55;;;;;;;14.50;4.05;;;22.90;49.20;;;;;;5416488;26;20010;-75
2024/04/11 12:18:24;;;;;;;10.45;3.88;;;22.90;50.10;;;;;;5417673;26;19999;-76
2024/04/11 12:20:53;;;;;;;13.32;4.30;;;23.10;49.90;;;;;;5416522;26;20102;-76
2024/04/11 12:23:20;;;;;;;15.88;4.63;;;23.30;50.20;;;;;;5416651;26;20492;-78
2024/04/11 12:25:46;;;;;;;14.38;4.53;;;23.40;49.60;;;;;;5417382;26;20465;-74
2024/04/11 12:28:12;;;;;;;20.88;5.20;;;23.50;49.70;;;;;;5416702;26;20003;-74
2024/04/11 12:30:38;;;;;;;9.73;4.07;;;23.60;49.70;;;;;;5416591;26;19995;-76
2024/04/11 12:33:08;;;;;;;13.82;4.70;;;23.60;49.50;;;;;;5416976;26;20340;-75
2024/04/11 12:35:55;;;;;;;14.90;4.15;;;23.70;49.20;;;;;;5416684;26;20003;-76
2024/04/11 12:38:24;;;;;;;11.00;4.47;;;23.90;49.70;;;;;;5416727;26;20331;-75
2024/04/11 12:40:51;;;;;;;17.77;4.57;;;24.00;48.30;;;;;;5415624;26;19995;-74
2024/04/11 12:43:17;;;;;;;17.10;4.47;;;24.00;49.30;;;;;;5415256;26;20008;-73
2024/04/11 12:45:53;;;;;;;12.77;4.10;;;23.90;48.90;;;;;;5415562;26;20007;-75
2024/04/11 12:48:25;;;;;;;14.27;4.20;;;23.80;48.80;;;;;;5415516;26;20027;-74
2024/04/11 12:50:59;;;;;;;11.97;4.00;;;23.80;48.90;;;;;;5416589;26;20448;-73
2024/04/11 12:53:25;;;;;;;;;;;24.00;48.90;;;;;;5417247;26;19999;-75